Boskydell, Illinois
Current Conditions -  °F | °C
As of 8:21 AM on Thursday 18 Dec 2014 (Local Time) from KMDH Reporting Station
Freezing Rain Freezing Rain  
Wind Chill: 25°   Ceiling: 700
Heat Index: 31°   Visibility: 1.7mi
Dew Point: 28°   Wind: 6mph
Humidity: 89%   Direction: NA
Pressure: 30.3"   Gusts: NA
Location:  37.7248°N, 89.197°W
Report Text: KMDH 181421Z VRB05KT 1 3/4SM -FZRA BR BKN007 OVC012 M01/M02 A3030 RMK AO2 UPB15E19FZRAB19 P0000 I1001 T10061022
Loading
Personal Weather Stations






























Interactive Weather Map New forecast layout! Learn more

10-Day Weather Forecast

Advertisements
Track Severe Weather on mobile